Accueil
METAR-TAF:

METAR-TAF

Aéroports :

Mysore, Inde

latitude: 12-13-48N, longitude: 76-39-21E, altitude: 715 m

Observation

Le bulletin a été fait il y a 39 minutes, à 04:30 UTC
Vent 8 kt de est/sud-est
Température 24°C
Humidité 69%
Pression 1020 hPa
Visibilité 10 km ou plus
Nuages épars à une hauteur de 1500 ft

METAR: VOMY 080430Z 11008KT 9999 SCT015 24/18 Q1020

Heure: 10:39 (05:09 UTC)

Prévision

Le bulletin a été fait il y a 3 heures et 9 minutes, à 02:00 UTC
Prévision valable du 08 à 03 UTC au 08 à 12 UTC
Vent 10 kt de est
Visibilité: 3000 m
Nuages épars à une hauteur de 1000 ft
brume
Evoluant progressivement
du 08 à 05 UTC au 08 à 06 UTC
Visibilité: 6000 m
Nuages épars à une hauteur de 1200 ft
Nuages épars à une hauteur de 8000 ft

TAF: VOMY 080200Z 0803/0812 09010KT 3000 BR SCT010 BECMG 0805/0806 6000 SCT012 SCT080

Observations et prévisions météorologiques de plus de 4000 aéroports (messages METAR et TAF).

Les stations disponibles sont représentées par des disques jaunes et rouges sur la carte.

Passer la souris dessus pour voir le nom de la station.

Cliquer dessus pour voir les observations et prévisions météorologiques.

Pour changer de carte: cliquez sur les boutons verts avec une croix noire pour zoomer, sur le bouton vert avec un tiret pour effectuer un zoom arrière, ou sur les flèches vertes pour les cartes adjacentes.


METAR-TAF: